Abovyan, Armenia

2:23 PM +04 on December 11, 2016 (GMT +0400)
Zvartnots | | Change Station

Elev 2838 ft 40.15 °N, 44.40 °E | Updated 23 minutes ago

Mostly Cloudy
Mostly Cloudy
36 °F
Feels Like 36 °F
N
0
Wind Variable Wind from North

Today
High -- | Low -- °F
--% Chance of Precip.
Yesterday
High -- | Low -- °F
Precip. -- in
Pressure 29.98 in
Visibility 1.4 miles
Clouds Scattered Clouds 1000 ft
Dew Point 28 °F
Humidity 75%
Rainfall 0.00 in
Snow Depth Not available.
8:14 AM 5:35 PM
Waxing Gibbous, 90% visible
METAR UDYZ 111000Z 00000KT 2300 BR SCT010 02/M02 Q1015 R09/190065 NOSIG
Pressure 29.98 in
Visibility 1.4 miles
Clouds Scattered Clouds 1000 ft
Dew Point 28 °F
Humidity 75%
Rainfall 0.00 in
Snow Depth Not available.
8:14 AM 5:35 PM
Waxing Gibbous, 90% visible
METAR UDYZ 111000Z 00000KT 2300 BR SCT010 02/M02 Q1015 R09/190065 NOSIG

10-Day Weather Forecast

×

Almanac

Astronomy

Dec. 11, 2016 Rise Set
Actual Time
Civil Twilight
Nautical Twilight
Astronomical Twilight
Moon
Length of Visible Light
Length of Day
Tomorrow will be .
, % of the Moon is Illuminated

Today's Extremes

Country Highs Country Lows

Community

WunderPhotos

Upload Photos

1,956,702 photos uploaded!

WunderBlog® & News

Nearby

Air Quality

  Air Quality AQ Index Pollutant
Not available.

Snow Depth

Station Depth Elevation

Earthquake Activity

City Distance Mag. Time & Date
Minimum magnitude displayed is 2.5.

Coastal Water Temperatures

Place Temperature

Stations

Nearby Weather Stations

Station Location Temp. Windchill Dew Point Humidity Wind Precip. Elev Updated Type